Terminal Aerodrome Forecast
Issued by NWS

Home | Current Version | Previous Version | Text Only | Print | Product List | Glossary Off
Versions: 1 2 3 4 5 6 7 8 9 10 11 12 13 14 15 16

239
FTUS42 KMHX 201259 AAA
TAFPGV
TAF AMD
KPGV 201259Z 2013/2112 34004KT P6SM SKC
     FM210700 21005KT P6SM BKN070
      AMD LTD TO CLD VIS AND WIND=

USA.gov is the U.S. government's official web portal to all federal, state and local government web resources and services.